sensor_id;sensor_type;location;lat;lon;timestamp;temperature;humidity
314;DHT22;143;51.634;7.112;2023-07-20T00:00:06;18.40;1.00
314;DHT22;143;51.634;7.112;2023-07-20T00:02:32;18.40;1.00
314;DHT22;143;51.634;7.112;2023-07-20T00:04:57;18.40;1.00
314;DHT22;143;51.634;7.112;2023-07-20T00:07:23;18.40;1.00
314;DHT22;143;51.634;7.112;2023-07-20T00:09:50;18.40;1.00
314;DHT22;143;51.634;7.112;2023-07-20T00:12:16;18.40;1.00
314;DHT22;143;51.634;7.112;2023-07-20T00:14:41;18.40;1.00
314;DHT22;143;51.634;7.112;2023-07-20T00:17:07;18.40;1.00
314;DHT22;143;51.634;7.112;2023-07-20T00:19:32;18.40;1.00
314;DHT22;143;51.634;7.112;2023-07-20T00:21:58;18.40;1.00
314;DHT22;143;51.634;7.112;2023-07-20T00:24:24;18.40;1.00
314;DHT22;143;51.634;7.112;2023-07-20T00:26:50;18.40;1.00
314;DHT22;143;51.634;7.112;2023-07-20T00:29:16;18.40;1.00
314;DHT22;143;51.634;7.112;2023-07-20T00:31:41;18.40;1.00
314;DHT22;143;51.634;7.112;2023-07-20T00:34:08;18.40;1.00
314;DHT22;143;51.634;7.112;2023-07-20T00:36:34;18.40;1.00
314;DHT22;143;51.634;7.112;2023-07-20T00:39:00;18.40;1.00
314;DHT22;143;51.634;7.112;2023-07-20T00:41:25;18.40;1.00
314;DHT22;143;51.634;7.112;2023-07-20T00:43:55;18.40;1.00
314;DHT22;143;51.634;7.112;2023-07-20T00:46:23;18.40;1.00
314;DHT22;143;51.634;7.112;2023-07-20T00:48:48;18.40;1.00
314;DHT22;143;51.634;7.112;2023-07-20T00:51:14;18.40;1.00
314;DHT22;143;51.634;7.112;2023-07-20T00:53:40;18.40;1.00
314;DHT22;143;51.634;7.112;2023-07-20T00:56:06;18.40;1.00
314;DHT22;143;51.634;7.112;2023-07-20T00:58:34;18.40;1.00
314;DHT22;143;51.634;7.112;2023-07-20T01:01:00;18.40;1.00
314;DHT22;143;51.634;7.112;2023-07-20T01:03:26;18.40;1.00
314;DHT22;143;51.634;7.112;2023-07-20T01:05:58;18.40;1.00
314;DHT22;143;51.634;7.112;2023-07-20T01:08:32;18.40;1.00
314;DHT22;143;51.634;7.112;2023-07-20T01:11:43;18.40;1.00
314;DHT22;143;51.634;7.112;2023-07-20T01:14:01;18.40;1.00
314;DHT22;143;51.634;7.112;2023-07-20T01:16:28;18.40;1.00
314;DHT22;143;51.634;7.112;2023-07-20T01:18:53;18.40;1.00
314;DHT22;143;51.634;7.112;2023-07-20T01:21:28;18.40;1.00
314;DHT22;143;51.634;7.112;2023-07-20T01:30:03;18.30;1.00
314;DHT22;143;51.634;7.112;2023-07-20T01:32:33;18.30;1.00
314;DHT22;143;51.634;7.112;2023-07-20T01:34:59;18.30;1.00
314;DHT22;143;51.634;7.112;2023-07-20T01:37:27;18.30;1.00
314;DHT22;143;51.634;7.112;2023-07-20T01:39:55;18.30;1.00
314;DHT22;143;51.634;7.112;2023-07-20T01:42:24;18.30;1.00
314;DHT22;143;51.634;7.112;2023-07-20T01:44:53;18.20;1.00
314;DHT22;143;51.634;7.112;2023-07-20T01:47:19;18.20;1.00
314;DHT22;143;51.634;7.112;2023-07-20T01:49:45;18.20;1.00
314;DHT22;143;51.634;7.112;2023-07-20T01:52:11;18.20;1.00
314;DHT22;143;51.634;7.112;2023-07-20T01:54:36;18.20;1.00
314;DHT22;143;51.634;7.112;2023-07-20T01:57:02;18.20;1.00
314;DHT22;143;51.634;7.112;2023-07-20T01:59:28;18.20;1.00
314;DHT22;143;51.634;7.112;2023-07-20T02:01:54;18.30;1.00
314;DHT22;143;51.634;7.112;2023-07-20T02:04:20;18.20;1.00
314;DHT22;143;51.634;7.112;2023-07-20T02:06:45;18.30;1.00
314;DHT22;143;51.634;7.112;2023-07-20T02:09:11;18.30;1.00
314;DHT22;143;51.634;7.112;2023-07-20T02:11:37;18.30;1.00
314;DHT22;143;51.634;7.112;2023-07-20T02:14:02;18.30;1.00
314;DHT22;143;51.634;7.112;2023-07-20T02:16:28;18.30;1.00
314;DHT22;143;51.634;7.112;2023-07-20T02:18:54;18.30;1.00
314;DHT22;143;51.634;7.112;2023-07-20T02:21:22;18.30;1.00
314;DHT22;143;51.634;7.112;2023-07-20T02:23:48;18.30;1.00
314;DHT22;143;51.634;7.112;2023-07-20T02:26:14;18.30;1.00
314;DHT22;143;51.634;7.112;2023-07-20T02:28:40;18.20;1.00
314;DHT22;143;51.634;7.112;2023-07-20T02:31:06;18.20;1.00
314;DHT22;143;51.634;7.112;2023-07-20T02:33:32;18.20;1.00
314;DHT22;143;51.634;7.112;2023-07-20T02:35:58;18.20;1.00
314;DHT22;143;51.634;7.112;2023-07-20T02:38:23;18.20;1.00
314;DHT22;143;51.634;7.112;2023-07-20T02:40:49;18.20;1.00
314;DHT22;143;51.634;7.112;2023-07-20T02:43:15;18.20;1.00
314;DHT22;143;51.634;7.112;2023-07-20T02:45:41;18.20;1.00
314;DHT22;143;51.634;7.112;2023-07-20T02:48:09;18.20;1.00
314;DHT22;143;51.634;7.112;2023-07-20T02:50:35;18.20;1.00
314;DHT22;143;51.634;7.112;2023-07-20T02:53:02;18.20;1.00
314;DHT22;143;51.634;7.112;2023-07-20T02:55:27;18.20;1.00
314;DHT22;143;51.634;7.112;2023-07-20T02:57:53;18.20;1.00
314;DHT22;143;51.634;7.112;2023-07-20T03:00:19;18.20;1.00
314;DHT22;143;51.634;7.112;2023-07-20T03:02:46;18.30;1.00
314;DHT22;143;51.634;7.112;2023-07-20T03:05:14;18.20;1.00
314;DHT22;143;51.634;7.112;2023-07-20T03:07:42;18.20;1.00
314;DHT22;143;51.634;7.112;2023-07-20T03:10:09;18.20;1.00
314;DHT22;143;51.634;7.112;2023-07-20T03:12:35;18.20;1.00
314;DHT22;143;51.634;7.112;2023-07-20T03:15:04;18.20;1.00
314;DHT22;143;51.634;7.112;2023-07-20T03:17:30;18.20;1.00
314;DHT22;143;51.634;7.112;2023-07-20T03:19:56;18.20;1.00
314;DHT22;143;51.634;7.112;2023-07-20T03:22:21;18.20;1.00
314;DHT22;143;51.634;7.112;2023-07-20T03:24:47;18.20;1.00
314;DHT22;143;51.634;7.112;2023-07-20T03:27:13;18.20;1.00
314;DHT22;143;51.634;7.112;2023-07-20T03:29:39;18.20;1.00
314;DHT22;143;51.634;7.112;2023-07-20T03:32:05;18.20;1.00
314;DHT22;143;51.634;7.112;2023-07-20T03:34:31;18.20;1.00
314;DHT22;143;51.634;7.112;2023-07-20T03:36:57;18.20;1.00
314;DHT22;143;51.634;7.112;2023-07-20T03:39:22;18.20;1.00
314;DHT22;143;51.634;7.112;2023-07-20T03:41:48;18.20;1.00
314;DHT22;143;51.634;7.112;2023-07-20T03:44:14;18.20;1.00
314;DHT22;143;51.634;7.112;2023-07-20T03:46:39;18.10;1.00
314;DHT22;143;51.634;7.112;2023-07-20T03:49:05;18.10;1.00
314;DHT22;143;51.634;7.112;2023-07-20T03:51:32;18.10;1.00
314;DHT22;143;51.634;7.112;2023-07-20T03:53:58;18.10;1.00
314;DHT22;143;51.634;7.112;2023-07-20T03:56:24;18.10;1.00
314;DHT22;143;51.634;7.112;2023-07-20T03:58:50;18.10;1.00
314;DHT22;143;51.634;7.112;2023-07-20T04:01:15;18.10;1.00
314;DHT22;143;51.634;7.112;2023-07-20T04:03:42;18.10;1.00
314;DHT22;143;51.634;7.112;2023-07-20T04:06:08;18.10;1.00
314;DHT22;143;51.634;7.112;2023-07-20T04:08:35;18.10;1.00
314;DHT22;143;51.634;7.112;2023-07-20T04:11:03;18.00;1.00
314;DHT22;143;51.634;7.112;2023-07-20T04:13:29;18.10;1.00
314;DHT22;143;51.634;7.112;2023-07-20T04:15:58;18.00;1.00
314;DHT22;143;51.634;7.112;2023-07-20T04:18:24;18.00;1.00
314;DHT22;143;51.634;7.112;2023-07-20T04:20:50;18.00;1.00
314;DHT22;143;51.634;7.112;2023-07-20T04:23:15;18.00;1.00
314;DHT22;143;51.634;7.112;2023-07-20T04:25:42;18.00;1.00
314;DHT22;143;51.634;7.112;2023-07-20T04:28:07;17.90;1.00
314;DHT22;143;51.634;7.112;2023-07-20T04:30:35;17.90;1.00
314;DHT22;143;51.634;7.112;2023-07-20T04:33:01;17.90;1.00
314;DHT22;143;51.634;7.112;2023-07-20T04:35:48;17.90;1.00
314;DHT22;143;51.634;7.112;2023-07-20T04:38:15;17.90;1.00
314;DHT22;143;51.634;7.112;2023-07-20T04:40:43;17.90;1.00
314;DHT22;143;51.634;7.112;2023-07-20T04:43:09;17.90;1.00
314;DHT22;143;51.634;7.112;2023-07-20T04:45:35;17.90;1.00
314;DHT22;143;51.634;7.112;2023-07-20T04:48:00;17.90;1.00
314;DHT22;143;51.634;7.112;2023-07-20T04:50:26;17.90;1.00
314;DHT22;143;51.634;7.112;2023-07-20T04:52:53;17.90;1.00
314;DHT22;143;51.634;7.112;2023-07-20T04:55:19;17.90;1.00
314;DHT22;143;51.634;7.112;2023-07-20T04:57:44;17.90;1.00
314;DHT22;143;51.634;7.112;2023-07-20T05:00:11;17.90;1.00
314;DHT22;143;51.634;7.112;2023-07-20T05:02:38;17.80;1.00
314;DHT22;143;51.634;7.112;2023-07-20T05:05:04;17.90;1.00
314;DHT22;143;51.634;7.112;2023-07-20T05:07:31;17.80;1.00
314;DHT22;143;51.634;7.112;2023-07-20T05:09:57;17.90;1.00
314;DHT22;143;51.634;7.112;2023-07-20T05:12:23;17.90;1.00
314;DHT22;143;51.634;7.112;2023-07-20T05:14:49;17.90;1.00
314;DHT22;143;51.634;7.112;2023-07-20T05:17:14;17.90;1.00
314;DHT22;143;51.634;7.112;2023-07-20T05:19:40;17.90;1.00
314;DHT22;143;51.634;7.112;2023-07-20T05:22:06;17.90;1.00
314;DHT22;143;51.634;7.112;2023-07-20T05:24:31;17.90;1.00
314;DHT22;143;51.634;7.112;2023-07-20T05:26:58;17.90;1.00
314;DHT22;143;51.634;7.112;2023-07-20T05:29:24;17.90;1.00
314;DHT22;143;51.634;7.112;2023-07-20T05:31:50;17.90;1.00
314;DHT22;143;51.634;7.112;2023-07-20T05:34:16;18.00;1.00
314;DHT22;143;51.634;7.112;2023-07-20T05:36:42;18.00;1.00
314;DHT22;143;51.634;7.112;2023-07-20T05:39:07;18.00;1.00
314;DHT22;143;51.634;7.112;2023-07-20T05:41:33;18.00;1.00
314;DHT22;143;51.634;7.112;2023-07-20T05:43:59;18.00;1.00
314;DHT22;143;51.634;7.112;2023-07-20T05:46:24;18.00;1.00
314;DHT22;143;51.634;7.112;2023-07-20T05:48:50;18.00;1.00
314;DHT22;143;51.634;7.112;2023-07-20T05:51:16;18.00;1.00
314;DHT22;143;51.634;7.112;2023-07-20T05:53:41;18.00;1.00
314;DHT22;143;51.634;7.112;2023-07-20T05:56:07;18.00;1.00
314;DHT22;143;51.634;7.112;2023-07-20T05:58:36;17.90;1.00
314;DHT22;143;51.634;7.112;2023-07-20T06:01:03;18.00;1.00
314;DHT22;143;51.634;7.112;2023-07-20T06:03:31;18.00;1.00
314;DHT22;143;51.634;7.112;2023-07-20T06:06:00;18.00;1.00
314;DHT22;143;51.634;7.112;2023-07-20T06:08:30;18.00;1.00
314;DHT22;143;51.634;7.112;2023-07-20T06:10:56;17.90;1.00
314;DHT22;143;51.634;7.112;2023-07-20T06:13:21;17.90;1.00
314;DHT22;143;51.634;7.112;2023-07-20T06:15:47;18.00;1.00
314;DHT22;143;51.634;7.112;2023-07-20T06:18:13;18.00;1.00
314;DHT22;143;51.634;7.112;2023-07-20T06:20:39;18.00;1.00
314;DHT22;143;51.634;7.112;2023-07-20T06:23:05;18.00;1.00
314;DHT22;143;51.634;7.112;2023-07-20T06:25:31;18.00;1.00
314;DHT22;143;51.634;7.112;2023-07-20T06:27:56;18.00;1.00
314;DHT22;143;51.634;7.112;2023-07-20T06:30:22;18.00;1.00
314;DHT22;143;51.634;7.112;2023-07-20T06:32:48;18.00;1.00
314;DHT22;143;51.634;7.112;2023-07-20T06:35:14;18.10;1.00
314;DHT22;143;51.634;7.112;2023-07-20T06:37:40;18.10;1.00
314;DHT22;143;51.634;7.112;2023-07-20T06:40:06;18.10;1.00
314;DHT22;143;51.634;7.112;2023-07-20T06:42:34;18.20;1.00
314;DHT22;143;51.634;7.112;2023-07-20T06:45:00;18.10;1.00
314;DHT22;143;51.634;7.112;2023-07-20T06:47:26;18.20;1.00
314;DHT22;143;51.634;7.112;2023-07-20T06:49:52;18.20;1.00
314;DHT22;143;51.634;7.112;2023-07-20T06:52:17;18.20;1.00
314;DHT22;143;51.634;7.112;2023-07-20T06:54:43;18.20;1.00
314;DHT22;143;51.634;7.112;2023-07-20T06:57:09;18.20;1.00
314;DHT22;143;51.634;7.112;2023-07-20T06:59:34;18.20;99.90
314;DHT22;143;51.634;7.112;2023-07-20T07:02:00;18.20;99.90
314;DHT22;143;51.634;7.112;2023-07-20T07:04:26;18.20;99.90
314;DHT22;143;51.634;7.112;2023-07-20T07:06:52;18.20;99.90
314;DHT22;143;51.634;7.112;2023-07-20T07:09:18;18.20;99.90
314;DHT22;143;51.634;7.112;2023-07-20T07:11:44;18.20;99.90
314;DHT22;143;51.634;7.112;2023-07-20T07:14:12;18.20;99.90
314;DHT22;143;51.634;7.112;2023-07-20T07:16:37;18.20;99.90
314;DHT22;143;51.634;7.112;2023-07-20T07:19:04;18.20;99.90
314;DHT22;143;51.634;7.112;2023-07-20T07:21:31;18.20;99.90
314;DHT22;143;51.634;7.112;2023-07-20T07:23:56;18.30;99.90
314;DHT22;143;51.634;7.112;2023-07-20T07:26:23;18.30;99.90
314;DHT22;143;51.634;7.112;2023-07-20T07:28:49;18.40;99.90
314;DHT22;143;51.634;7.112;2023-07-20T07:31:15;18.40;99.90
314;DHT22;143;51.634;7.112;2023-07-20T07:33:41;18.40;99.90
314;DHT22;143;51.634;7.112;2023-07-20T07:36:06;18.50;99.90
314;DHT22;143;51.634;7.112;2023-07-20T07:38:32;18.50;99.90
314;DHT22;143;51.634;7.112;2023-07-20T07:40:58;18.60;99.90
314;DHT22;143;51.634;7.112;2023-07-20T07:43:24;18.60;99.90
314;DHT22;143;51.634;7.112;2023-07-20T07:45:50;18.70;99.90
314;DHT22;143;51.634;7.112;2023-07-20T07:48:15;18.70;99.90
314;DHT22;143;51.634;7.112;2023-07-20T07:50:42;18.80;99.90
314;DHT22;143;51.634;7.112;2023-07-20T07:53:08;18.90;99.90
314;DHT22;143;51.634;7.112;2023-07-20T07:55:36;19.00;99.90
314;DHT22;143;51.634;7.112;2023-07-20T07:58:02;19.10;99.90
314;DHT22;143;51.634;7.112;2023-07-20T08:00:28;19.10;99.90
314;DHT22;143;51.634;7.112;2023-07-20T08:02:53;19.20;99.90
314;DHT22;143;51.634;7.112;2023-07-20T08:05:19;19.30;99.90
314;DHT22;143;51.634;7.112;2023-07-20T08:07:44;19.40;99.90
314;DHT22;143;51.634;7.112;2023-07-20T08:10:11;19.50;99.90
314;DHT22;143;51.634;7.112;2023-07-20T08:12:36;19.60;99.90
314;DHT22;143;51.634;7.112;2023-07-20T08:15:02;19.70;99.90
314;DHT22;143;51.634;7.112;2023-07-20T08:17:29;19.80;99.90
314;DHT22;143;51.634;7.112;2023-07-20T08:19:55;19.80;99.90
314;DHT22;143;51.634;7.112;2023-07-20T08:22:20;19.80;99.90
314;DHT22;143;51.634;7.112;2023-07-20T08:24:46;19.90;99.90
314;DHT22;143;51.634;7.112;2023-07-20T08:27:12;20.00;99.90
314;DHT22;143;51.634;7.112;2023-07-20T08:29:38;20.10;99.90
314;DHT22;143;51.634;7.112;2023-07-20T08:32:04;20.10;99.90
314;DHT22;143;51.634;7.112;2023-07-20T08:34:30;20.10;81.50
314;DHT22;143;51.634;7.112;2023-07-20T08:36:58;20.10;58.00
314;DHT22;143;51.634;7.112;2023-07-20T08:39:24;20.10;35.00
314;DHT22;143;51.634;7.112;2023-07-20T08:41:50;20.10;19.30
314;DHT22;143;51.634;7.112;2023-07-20T08:44:17;20.10;8.10
314;DHT22;143;51.634;7.112;2023-07-20T08:46:43;20.20;14.00
314;DHT22;143;51.634;7.112;2023-07-20T08:49:09;20.20;12.50
314;DHT22;143;51.634;7.112;2023-07-20T08:51:36;20.30;1.00
314;DHT22;143;51.634;7.112;2023-07-20T08:54:02;20.40;1.00
314;DHT22;143;51.634;7.112;2023-07-20T08:56:30;20.50;1.00
314;DHT22;143;51.634;7.112;2023-07-20T08:58:57;20.60;1.00
314;DHT22;143;51.634;7.112;2023-07-20T09:01:24;20.70;1.00
314;DHT22;143;51.634;7.112;2023-07-20T09:03:50;20.80;1.00
314;DHT22;143;51.634;7.112;2023-07-20T09:06:16;20.90;1.00
314;DHT22;143;51.634;7.112;2023-07-20T09:08:42;20.90;1.00
314;DHT22;143;51.634;7.112;2023-07-20T09:11:11;21.00;1.00
314;DHT22;143;51.634;7.112;2023-07-20T09:13:38;21.10;1.00
314;DHT22;143;51.634;7.112;2023-07-20T09:16:04;21.20;1.00
314;DHT22;143;51.634;7.112;2023-07-20T09:18:31;21.30;1.00
314;DHT22;143;51.634;7.112;2023-07-20T09:21:04;21.40;1.00
314;DHT22;143;51.634;7.112;2023-07-20T09:23:38;21.50;1.00
314;DHT22;143;51.634;7.112;2023-07-20T09:26:14;21.50;1.00
314;DHT22;143;51.634;7.112;2023-07-20T09:28:58;21.60;1.00
314;DHT22;143;51.634;7.112;2023-07-20T09:31:24;21.70;1.00
314;DHT22;143;51.634;7.112;2023-07-20T09:33:52;21.70;1.00
314;DHT22;143;51.634;7.112;2023-07-20T09:36:18;21.70;1.00
314;DHT22;143;51.634;7.112;2023-07-20T09:38:44;21.60;1.00
314;DHT22;143;51.634;7.112;2023-07-20T09:41:15;21.50;1.00
314;DHT22;143;51.634;7.112;2023-07-20T09:43:45;21.50;1.00
314;DHT22;143;51.634;7.112;2023-07-20T09:46:11;21.50;1.00
314;DHT22;143;51.634;7.112;2023-07-20T09:48:37;21.60;1.00
314;DHT22;143;51.634;7.112;2023-07-20T09:51:03;21.70;1.00
314;DHT22;143;51.634;7.112;2023-07-20T09:53:32;21.80;1.00
314;DHT22;143;51.634;7.112;2023-07-20T09:55:58;21.90;1.00
314;DHT22;143;51.634;7.112;2023-07-20T09:58:26;22.00;1.00
314;DHT22;143;51.634;7.112;2023-07-20T10:00:54;22.10;1.00
314;DHT22;143;51.634;7.112;2023-07-20T10:03:24;22.20;1.00
314;DHT22;143;51.634;7.112;2023-07-20T10:06:00;22.30;1.00
314;DHT22;143;51.634;7.112;2023-07-20T10:08:30;22.30;1.00
314;DHT22;143;51.634;7.112;2023-07-20T10:10:59;22.40;1.00
314;DHT22;143;51.634;7.112;2023-07-20T10:13:27;22.50;1.00
314;DHT22;143;51.634;7.112;2023-07-20T10:16:03;22.60;1.00
314;DHT22;143;51.634;7.112;2023-07-20T10:21:10;22.80;1.00
314;DHT22;143;51.634;7.112;2023-07-20T10:23:35;23.00;1.00
314;DHT22;143;51.634;7.112;2023-07-20T10:26:02;23.00;1.00
314;DHT22;143;51.634;7.112;2023-07-20T10:28:28;23.10;1.00
314;DHT22;143;51.634;7.112;2023-07-20T10:30:54;23.20;1.00
314;DHT22;143;51.634;7.112;2023-07-20T10:33:20;23.20;1.00
314;DHT22;143;51.634;7.112;2023-07-20T10:36:01;23.30;1.00
314;DHT22;143;51.634;7.112;2023-07-20T10:41:33;23.50;1.00
314;DHT22;143;51.634;7.112;2023-07-20T10:44:09;23.60;1.00
314;DHT22;143;51.634;7.112;2023-07-20T10:49:08;23.50;1.00
314;DHT22;143;51.634;7.112;2023-07-20T10:51:45;23.40;1.00
314;DHT22;143;51.634;7.112;2023-07-20T10:56:41;23.40;1.00
314;DHT22;143;51.634;7.112;2023-07-20T10:59:18;23.40;1.00
314;DHT22;143;51.634;7.112;2023-07-20T11:01:47;23.50;1.00
314;DHT22;143;51.634;7.112;2023-07-20T11:04:16;23.60;1.00
314;DHT22;143;51.634;7.112;2023-07-20T11:06:46;23.60;1.00
314;DHT22;143;51.634;7.112;2023-07-20T11:09:15;23.70;1.00
314;DHT22;143;51.634;7.112;2023-07-20T11:14:30;23.90;1.00
314;DHT22;143;51.634;7.112;2023-07-20T11:17:13;24.00;1.00
314;DHT22;143;51.634;7.112;2023-07-20T11:19:40;24.10;1.00
314;DHT22;143;51.634;7.112;2023-07-20T11:22:08;24.10;1.00
314;DHT22;143;51.634;7.112;2023-07-20T11:24:38;24.20;1.00
314;DHT22;143;51.634;7.112;2023-07-20T11:27:04;24.30;1.00
314;DHT22;143;51.634;7.112;2023-07-20T11:29:30;24.40;1.00
314;DHT22;143;51.634;7.112;2023-07-20T11:31:56;24.40;1.00
314;DHT22;143;51.634;7.112;2023-07-20T11:34:24;24.50;1.00
314;DHT22;143;51.634;7.112;2023-07-20T11:36:51;24.60;1.00
314;DHT22;143;51.634;7.112;2023-07-20T11:39:18;24.60;1.00
314;DHT22;143;51.634;7.112;2023-07-20T11:41:52;24.80;1.00
314;DHT22;143;51.634;7.112;2023-07-20T11:44:19;24.80;1.00
314;DHT22;143;51.634;7.112;2023-07-20T11:46:46;24.90;1.00
314;DHT22;143;51.634;7.112;2023-07-20T11:49:12;24.90;1.00
314;DHT22;143;51.634;7.112;2023-07-20T11:51:39;24.90;1.00
314;DHT22;143;51.634;7.112;2023-07-20T11:54:07;25.00;1.00
314;DHT22;143;51.634;7.112;2023-07-20T11:56:33;25.10;1.00
314;DHT22;143;51.634;7.112;2023-07-20T11:58:59;25.20;1.00
314;DHT22;143;51.634;7.112;2023-07-20T12:01:28;25.30;1.00
314;DHT22;143;51.634;7.112;2023-07-20T12:04:05;25.40;1.00
314;DHT22;143;51.634;7.112;2023-07-20T12:06:32;25.40;1.00
314;DHT22;143;51.634;7.112;2023-07-20T12:08:59;25.30;1.00
314;DHT22;143;51.634;7.112;2023-07-20T12:11:35;25.30;1.00
314;DHT22;143;51.634;7.112;2023-07-20T12:14:06;25.40;1.00
314;DHT22;143;51.634;7.112;2023-07-20T12:16:32;25.40;1.00
314;DHT22;143;51.634;7.112;2023-07-20T12:19:02;25.50;1.00
314;DHT22;143;51.634;7.112;2023-07-20T12:21:29;25.60;1.00
314;DHT22;143;51.634;7.112;2023-07-20T12:23:56;25.70;1.00
314;DHT22;143;51.634;7.112;2023-07-20T12:26:23;25.80;1.00
314;DHT22;143;51.634;7.112;2023-07-20T12:28:49;25.90;1.00
314;DHT22;143;51.634;7.112;2023-07-20T12:31:15;25.90;1.00
314;DHT22;143;51.634;7.112;2023-07-20T12:33:41;25.90;1.00
314;DHT22;143;51.634;7.112;2023-07-20T12:36:08;25.90;1.00
314;DHT22;143;51.634;7.112;2023-07-20T12:38:34;25.90;1.00
314;DHT22;143;51.634;7.112;2023-07-20T12:41:01;26.00;1.00
314;DHT22;143;51.634;7.112;2023-07-20T12:43:27;26.10;1.00
314;DHT22;143;51.634;7.112;2023-07-20T12:45:53;26.20;1.00
314;DHT22;143;51.634;7.112;2023-07-20T12:48:20;26.20;99.90
314;DHT22;143;51.634;7.112;2023-07-20T12:50:46;26.20;99.90
314;DHT22;143;51.634;7.112;2023-07-20T12:53:11;26.30;99.90
314;DHT22;143;51.634;7.112;2023-07-20T12:55:38;26.30;99.90
314;DHT22;143;51.634;7.112;2023-07-20T12:58:05;26.30;99.90
314;DHT22;143;51.634;7.112;2023-07-20T13:00:30;26.20;99.90
314;DHT22;143;51.634;7.112;2023-07-20T13:02:57;26.20;99.90
314;DHT22;143;51.634;7.112;2023-07-20T13:05:23;26.30;99.90
314;DHT22;143;51.634;7.112;2023-07-20T13:07:49;26.40;99.90
314;DHT22;143;51.634;7.112;2023-07-20T13:10:15;26.40;99.90
314;DHT22;143;51.634;7.112;2023-07-20T13:12:40;26.40;99.90
314;DHT22;143;51.634;7.112;2023-07-20T13:15:08;26.40;99.90
314;DHT22;143;51.634;7.112;2023-07-20T13:17:35;26.20;99.90
314;DHT22;143;51.634;7.112;2023-07-20T13:20:01;26.10;99.90
314;DHT22;143;51.634;7.112;2023-07-20T13:22:30;26.10;99.90
314;DHT22;143;51.634;7.112;2023-07-20T13:24:55;26.20;99.90
314;DHT22;143;51.634;7.112;2023-07-20T13:27:21;26.30;99.90
314;DHT22;143;51.634;7.112;2023-07-20T13:29:47;26.40;99.90
314;DHT22;143;51.634;7.112;2023-07-20T13:32:14;26.60;99.90
314;DHT22;143;51.634;7.112;2023-07-20T13:34:44;26.70;99.90
314;DHT22;143;51.634;7.112;2023-07-20T13:37:10;26.80;99.90
314;DHT22;143;51.634;7.112;2023-07-20T13:39:36;26.80;99.90
314;DHT22;143;51.634;7.112;2023-07-20T13:42:02;26.80;99.90
314;DHT22;143;51.634;7.112;2023-07-20T13:44:30;26.80;99.90
314;DHT22;143;51.634;7.112;2023-07-20T13:46:56;26.70;99.90
314;DHT22;143;51.634;7.112;2023-07-20T13:49:22;26.60;99.90
314;DHT22;143;51.634;7.112;2023-07-20T13:51:48;26.50;99.90
314;DHT22;143;51.634;7.112;2023-07-20T13:54:13;26.50;99.90
314;DHT22;143;51.634;7.112;2023-07-20T13:56:39;26.50;99.90
314;DHT22;143;51.634;7.112;2023-07-20T13:59:05;26.50;99.90
314;DHT22;143;51.634;7.112;2023-07-20T14:01:30;26.50;99.90
314;DHT22;143;51.634;7.112;2023-07-20T14:03:58;26.40;99.90
314;DHT22;143;51.634;7.112;2023-07-20T14:06:25;26.30;99.90
314;DHT22;143;51.634;7.112;2023-07-20T14:08:51;26.30;99.90
314;DHT22;143;51.634;7.112;2023-07-20T14:11:18;26.30;99.90
314;DHT22;143;51.634;7.112;2023-07-20T14:13:44;26.30;99.90
314;DHT22;143;51.634;7.112;2023-07-20T14:16:10;26.30;99.90
314;DHT22;143;51.634;7.112;2023-07-20T14:18:36;26.30;99.90
314;DHT22;143;51.634;7.112;2023-07-20T14:21:01;26.30;99.90
314;DHT22;143;51.634;7.112;2023-07-20T14:23:29;26.40;99.90
314;DHT22;143;51.634;7.112;2023-07-20T14:25:54;26.40;99.90
314;DHT22;143;51.634;7.112;2023-07-20T14:28:21;26.40;99.90
314;DHT22;143;51.634;7.112;2023-07-20T14:30:46;26.30;99.90
314;DHT22;143;51.634;7.112;2023-07-20T14:33:12;26.30;99.90
314;DHT22;143;51.634;7.112;2023-07-20T14:35:38;26.20;99.90
314;DHT22;143;51.634;7.112;2023-07-20T14:38:04;26.20;99.90
314;DHT22;143;51.634;7.112;2023-07-20T14:40:29;26.20;99.90
314;DHT22;143;51.634;7.112;2023-07-20T14:42:58;26.20;99.90
314;DHT22;143;51.634;7.112;2023-07-20T14:45:28;26.20;99.90
314;DHT22;143;51.634;7.112;2023-07-20T14:47:54;26.10;99.90
314;DHT22;143;51.634;7.112;2023-07-20T14:50:20;26.00;99.90
314;DHT22;143;51.634;7.112;2023-07-20T14:52:46;25.90;99.90
314;DHT22;143;51.634;7.112;2023-07-20T14:55:12;25.70;99.90
314;DHT22;143;51.634;7.112;2023-07-20T14:57:38;25.60;99.90
314;DHT22;143;51.634;7.112;2023-07-20T15:00:05;25.60;99.90
314;DHT22;143;51.634;7.112;2023-07-20T15:02:33;25.50;99.90
314;DHT22;143;51.634;7.112;2023-07-20T15:04:59;25.50;99.90
314;DHT22;143;51.634;7.112;2023-07-20T15:07:25;25.50;99.90
314;DHT22;143;51.634;7.112;2023-07-20T15:09:51;25.50;99.90
314;DHT22;143;51.634;7.112;2023-07-20T15:12:17;25.60;99.90
314;DHT22;143;51.634;7.112;2023-07-20T15:14:43;25.60;99.90
314;DHT22;143;51.634;7.112;2023-07-20T15:17:10;25.70;99.90
314;DHT22;143;51.634;7.112;2023-07-20T15:19:36;25.70;99.90
314;DHT22;143;51.634;7.112;2023-07-20T15:22:02;25.60;99.90
314;DHT22;143;51.634;7.112;2023-07-20T15:24:29;25.60;99.90
314;DHT22;143;51.634;7.112;2023-07-20T15:26:54;25.50;99.90
314;DHT22;143;51.634;7.112;2023-07-20T15:29:20;25.40;99.90
314;DHT22;143;51.634;7.112;2023-07-20T15:31:47;25.40;99.90
314;DHT22;143;51.634;7.112;2023-07-20T15:34:13;25.40;99.90
314;DHT22;143;51.634;7.112;2023-07-20T15:36:40;25.30;99.90
314;DHT22;143;51.634;7.112;2023-07-20T15:39:07;25.20;99.90
314;DHT22;143;51.634;7.112;2023-07-20T15:41:33;25.20;99.90
314;DHT22;143;51.634;7.112;2023-07-20T15:43:59;25.20;99.90
314;DHT22;143;51.634;7.112;2023-07-20T15:49:05;25.10;99.90
314;DHT22;143;51.634;7.112;2023-07-20T15:51:32;25.00;99.90
314;DHT22;143;51.634;7.112;2023-07-20T15:53:58;24.90;99.90
314;DHT22;143;51.634;7.112;2023-07-20T15:56:23;24.90;99.90
314;DHT22;143;51.634;7.112;2023-07-20T15:58:49;24.90;99.90
314;DHT22;143;51.634;7.112;2023-07-20T16:01:15;24.90;99.90
314;DHT22;143;51.634;7.112;2023-07-20T16:03:40;24.90;99.90
314;DHT22;143;51.634;7.112;2023-07-20T16:06:06;24.90;99.90
314;DHT22;143;51.634;7.112;2023-07-20T16:08:31;24.90;99.90
314;DHT22;143;51.634;7.112;2023-07-20T16:10:57;24.80;99.90
314;DHT22;143;51.634;7.112;2023-07-20T16:13:23;24.90;99.90
314;DHT22;143;51.634;7.112;2023-07-20T16:15:49;24.90;99.90
314;DHT22;143;51.634;7.112;2023-07-20T16:18:15;24.90;99.90
314;DHT22;143;51.634;7.112;2023-07-20T16:20:41;24.90;99.90
314;DHT22;143;51.634;7.112;2023-07-20T16:23:07;25.00;99.90
314;DHT22;143;51.634;7.112;2023-07-20T16:25:32;25.10;99.90
314;DHT22;143;51.634;7.112;2023-07-20T16:27:58;25.20;99.90
314;DHT22;143;51.634;7.112;2023-07-20T16:30:24;25.20;99.90
314;DHT22;143;51.634;7.112;2023-07-20T16:32:49;25.20;99.90
314;DHT22;143;51.634;7.112;2023-07-20T16:35:15;25.20;99.90
314;DHT22;143;51.634;7.112;2023-07-20T16:37:41;25.30;99.90
314;DHT22;143;51.634;7.112;2023-07-20T16:40:08;25.30;99.90
314;DHT22;143;51.634;7.112;2023-07-20T16:42:37;25.40;99.90
314;DHT22;143;51.634;7.112;2023-07-20T16:45:04;25.40;99.90
314;DHT22;143;51.634;7.112;2023-07-20T16:47:29;25.40;99.90
314;DHT22;143;51.634;7.112;2023-07-20T16:49:55;25.40;99.90
314;DHT22;143;51.634;7.112;2023-07-20T16:52:21;25.40;99.90
314;DHT22;143;51.634;7.112;2023-07-20T16:54:50;25.30;99.90
314;DHT22;143;51.634;7.112;2023-07-20T16:57:16;25.30;99.90
314;DHT22;143;51.634;7.112;2023-07-20T16:59:41;25.30;99.90
314;DHT22;143;51.634;7.112;2023-07-20T17:02:08;25.30;99.90
314;DHT22;143;51.634;7.112;2023-07-20T17:04:33;25.20;99.90